createdAt,value
2019-02-22T00:02:01.172Z,233.37
2019-02-22T00:04:30.599Z,223.93
2019-02-22T00:07:00.056Z,253.27
2019-02-22T00:09:29.489Z,265.00
2019-02-22T00:11:58.911Z,260.83
2019-02-22T00:14:28.333Z,276.73
2019-02-22T00:16:57.772Z,287.83
2019-02-22T00:19:27.199Z,268.43
2019-02-22T00:21:56.640Z,276.33
2019-02-22T00:24:26.047Z,309.63
2019-02-22T00:26:55.505Z,282.63
2019-02-22T00:29:24.926Z,252.57
2019-02-22T00:31:54.361Z,284.97
2019-02-22T00:34:23.845Z,287.07
2019-02-22T00:36:53.299Z,277.17
2019-02-22T00:39:22.777Z,309.37
2019-02-22T00:41:52.199Z,328.20
2019-02-22T00:44:21.638Z,277.13
2019-02-22T00:46:51.094Z,290.93
2019-02-22T00:49:20.530Z,276.77
2019-02-22T00:51:49.948Z,291.27
2019-02-22T00:54:19.387Z,247.40
2019-02-22T00:56:48.906Z,262.33
2019-02-22T00:59:18.407Z,261.00
2019-02-22T01:01:47.975Z,289.07
2019-02-22T01:04:17.439Z,264.63
2019-02-22T01:06:46.888Z,256.97
2019-02-22T01:09:16.335Z,280.43
2019-02-22T01:11:45.891Z,270.30
2019-02-22T01:14:15.356Z,272.47
2019-02-22T01:16:44.771Z,279.30
2019-02-22T01:19:14.203Z,292.73
2019-02-22T01:21:43.631Z,293.73
2019-02-22T01:24:13.064Z,293.50
2019-02-22T01:26:42.480Z,287.57
2019-02-22T01:29:11.885Z,287.77
2019-02-22T01:31:41.301Z,332.37
2019-02-22T01:34:10.730Z,305.53
2019-02-22T01:36:52.800Z,293.13
2019-02-22T01:39:22.236Z,331.43
2019-02-22T01:41:51.645Z,313.60
2019-02-22T01:44:22.345Z,313.80
2019-02-22T01:46:51.784Z,308.80
2019-02-22T01:49:21.216Z,313.37
2019-02-22T01:51:50.724Z,327.77
2019-02-22T01:54:20.159Z,329.87
2019-02-22T01:56:49.630Z,338.63
2019-02-22T01:59:19.316Z,320.60
2019-02-22T02:01:48.782Z,361.53
2019-02-22T02:04:18.290Z,362.17
2019-02-22T02:06:47.782Z,351.47
2019-02-22T02:09:20.127Z,384.07
2019-02-22T02:11:49.566Z,371.93
2019-02-22T02:14:19.043Z,374.47
2019-02-22T02:16:52.541Z,382.67
2019-02-22T02:19:22.029Z,375.47
2019-02-22T02:21:51.523Z,379.47
2019-02-22T02:24:21.145Z,383.63
2019-02-22T02:26:50.545Z,395.77
2019-02-22T02:29:20.003Z,373.60
2019-02-22T02:31:49.572Z,360.53
2019-02-22T02:34:19.067Z,355.47
2019-02-22T02:36:48.543Z,325.53
2019-02-22T02:39:17.957Z,351.93
2019-02-22T02:41:47.396Z,368.67
2019-02-22T02:44:19.442Z,376.07
2019-02-22T02:46:48.874Z,408.67
2019-02-22T02:49:18.334Z,374.97
2019-02-22T02:51:47.751Z,376.00
2019-02-22T02:54:17.173Z,378.20
2019-02-22T02:56:49.504Z,378.17
2019-02-22T02:59:18.913Z,407.17
2019-02-22T03:01:49.591Z,410.70
2019-02-22T03:04:18.989Z,415.70
2019-02-22T03:06:50.106Z,415.80
2019-02-22T03:09:19.560Z,399.37
2019-02-22T03:11:48.996Z,414.87
2019-02-22T03:14:18.560Z,409.33
2019-02-22T03:16:48.032Z,379.53
2019-02-22T03:19:17.464Z,381.67
2019-02-22T03:21:46.967Z,422.50
2019-02-22T03:24:16.478Z,403.20
2019-02-22T03:26:45.935Z,393.00
2019-02-22T03:29:15.344Z,393.00
2019-02-22T03:31:44.842Z,425.47
2019-02-22T03:34:14.257Z,387.17
2019-02-22T03:36:43.704Z,409.30
2019-02-22T03:39:15.922Z,420.17
2019-02-22T03:41:45.465Z,418.40
2019-02-22T03:44:14.973Z,383.63
2019-02-22T03:46:44.444Z,366.30
2019-02-22T03:49:13.847Z,394.57
2019-02-22T03:51:43.403Z,386.33
2019-02-22T03:54:12.903Z,379.53
2019-02-22T03:56:42.492Z,381.27
2019-02-22T03:59:11.998Z,390.37
2019-02-22T04:01:41.425Z,414.43
2019-02-22T04:04:10.967Z,391.90
2019-02-22T04:06:40.440Z,410.80
2019-02-22T04:09:10.431Z,391.27
2019-02-22T04:11:45.571Z,415.50
2019-02-22T04:14:11.187Z,408.37
2019-02-22T04:16:40.602Z,445.83
2019-02-22T04:19:10.031Z,442.67
2019-02-22T04:21:39.474Z,455.57
2019-02-22T04:24:08.983Z,440.10
2019-02-22T04:26:38.516Z,476.43
2019-02-22T04:29:09.632Z,451.27
2019-02-22T04:31:41.202Z,456.40
2019-02-22T04:34:10.710Z,473.80
2019-02-22T04:36:40.128Z,493.83
2019-02-22T04:39:09.609Z,488.97
2019-02-22T04:41:39.015Z,512.20
2019-02-22T04:44:08.485Z,503.50
2019-02-22T04:46:37.986Z,522.33
2019-02-22T04:49:07.418Z,530.73
2019-02-22T04:51:36.835Z,539.73
2019-02-22T04:54:06.266Z,542.13
2019-02-22T04:56:35.706Z,571.90
2019-02-22T04:59:05.144Z,630.43
2019-02-22T05:01:34.615Z,585.53
2019-02-22T05:04:04.056Z,590.33
2019-02-22T05:06:33.574Z,617.90
2019-02-22T05:09:04.408Z,607.30
2019-02-22T05:11:33.843Z,582.70
2019-02-22T05:14:03.264Z,609.90
2019-02-22T05:16:36.473Z,615.83
2019-02-22T05:19:05.964Z,627.23
2019-02-22T05:21:36.699Z,628.67
2019-02-22T05:24:07.007Z,638.10
2019-02-22T05:26:36.425Z,594.00
2019-02-22T05:29:05.943Z,651.20
2019-02-22T05:31:36.354Z,565.60
2019-02-22T05:34:05.780Z,568.83
2019-02-22T05:36:35.297Z,589.37
2019-02-22T05:39:18.563Z,600.47
2019-02-22T05:41:38.538Z,579.10
2019-02-22T05:44:07.949Z,610.83
2019-02-22T05:46:37.353Z,614.17
2019-02-22T05:49:06.876Z,588.53
2019-02-22T05:51:36.494Z,586.33
2019-02-22T05:54:08.723Z,565.97
2019-02-22T05:56:38.180Z,596.40
2019-02-22T05:59:07.636Z,576.73
2019-02-22T06:01:37.962Z,586.27
2019-02-22T06:04:07.522Z,582.80
2019-02-22T06:06:37.163Z,577.43
2019-02-22T06:09:06.892Z,577.23
2019-02-22T06:11:36.339Z,545.27
2019-02-22T06:14:05.758Z,555.20
2019-02-22T06:16:36.784Z,559.20
2019-02-22T06:19:06.221Z,554.23
2019-02-22T06:21:35.742Z,551.37
2019-02-22T06:24:05.194Z,574.37
2019-02-22T06:26:34.639Z,582.50
2019-02-22T06:29:04.131Z,582.47
2019-02-22T06:31:33.543Z,548.00
2019-02-22T06:34:02.955Z,535.83
2019-02-22T06:36:32.384Z,586.00
2019-02-22T06:39:01.862Z,570.13
2019-02-22T06:41:31.377Z,568.13
2019-02-22T06:44:00.938Z,535.87
2019-02-22T06:46:30.538Z,516.97
2019-02-22T06:49:00.042Z,511.00
2019-02-22T06:51:29.638Z,523.93
2019-02-22T06:53:59.063Z,555.73
2019-02-22T06:56:28.511Z,537.27
2019-02-22T06:58:58.872Z,522.67
2019-02-22T07:01:28.474Z,557.27
2019-02-22T07:03:57.942Z,566.87
2019-02-22T07:06:27.403Z,541.70
2019-02-22T07:08:57.321Z,548.43
2019-02-22T07:11:28.529Z,535.57
2019-02-22T07:13:57.995Z,539.63
2019-02-22T07:16:29.671Z,514.70
2019-02-22T07:18:59.167Z,525.63
2019-02-22T07:21:38.860Z,520.43
2019-02-22T07:23:59.689Z,506.37
2019-02-22T07:26:29.196Z,504.33
2019-02-22T07:28:58.633Z,570.83
2019-02-22T07:31:28.102Z,545.13
2019-02-22T07:33:58.421Z,541.47
2019-02-22T07:36:27.889Z,548.03
2019-02-22T07:38:57.337Z,532.83
2019-02-22T07:41:26.847Z,538.50
2019-02-22T07:43:56.254Z,570.07
2019-02-22T07:46:25.983Z,573.67
2019-02-22T07:48:55.665Z,531.57
2019-02-22T07:51:25.369Z,481.87
2019-02-22T07:53:54.827Z,481.73
2019-02-22T07:56:24.391Z,442.63
2019-02-22T07:58:53.927Z,455.17
2019-02-22T08:01:23.604Z,447.67
2019-02-22T08:03:53.106Z,440.37
2019-02-22T08:06:22.782Z,418.40
2019-02-22T08:08:52.223Z,444.40
2019-02-22T08:11:24.697Z,388.67
2019-02-22T08:13:54.104Z,398.83
2019-02-22T08:16:23.613Z,376.03
2019-02-22T08:19:00.971Z,352.40
2019-02-22T08:21:24.263Z,385.60
2019-02-22T08:23:53.698Z,352.20
2019-02-22T08:26:23.183Z,362.77
2019-02-22T08:28:52.671Z,347.77
2019-02-22T08:31:22.083Z,337.80
2019-02-22T08:33:57.157Z,360.00
2019-02-22T08:36:26.679Z,317.53
2019-02-22T08:38:56.190Z,310.63
2019-02-22T08:41:25.713Z,318.60
2019-02-22T08:43:55.664Z,354.33
2019-02-22T08:46:25.580Z,362.23
2019-02-22T08:48:54.995Z,456.30
2019-02-22T08:51:24.498Z,408.33
2019-02-22T08:53:54.107Z,373.57
2019-02-22T08:56:23.596Z,393.60
2019-02-22T08:58:53.224Z,362.87
2019-02-22T09:01:22.657Z,338.10
2019-02-22T09:03:53.075Z,391.40
2019-02-22T09:06:22.619Z,436.03
2019-02-22T09:08:52.092Z,364.13
2019-02-22T09:11:21.630Z,384.53
2019-02-22T09:13:51.133Z,378.97
2019-02-22T09:16:20.573Z,410.83
2019-02-22T09:18:50.059Z,416.50
2019-02-22T09:21:19.582Z,371.00
2019-02-22T09:24:08.388Z,331.27
2019-02-22T09:26:37.806Z,333.30
2019-02-22T09:29:07.317Z,260.60
2019-02-22T09:31:36.764Z,237.50
2019-02-22T09:34:06.233Z,233.60
2019-02-22T09:36:35.668Z,291.63
2019-02-22T09:39:05.538Z,221.60
2019-02-22T09:41:35.169Z,260.23
2019-02-22T09:44:04.607Z,193.47
2019-02-22T09:46:34.071Z,138.20
2019-02-22T09:49:03.646Z,157.07
2019-02-22T09:51:33.122Z,148.27
2019-02-22T09:54:02.611Z,106.77
2019-02-22T09:56:32.134Z,95.60
2019-02-22T09:59:01.654Z,149.53
2019-02-22T10:01:31.093Z,117.87
2019-02-22T10:04:00.521Z,118.77
2019-02-22T10:06:30.083Z,88.53
2019-02-22T10:08:59.479Z,99.30
2019-02-22T10:11:28.931Z,106.30
2019-02-22T10:14:06.736Z,94.00
2019-02-22T10:16:32.503Z,108.47
2019-02-22T10:19:01.956Z,91.67
2019-02-22T10:21:32.066Z,87.00
2019-02-22T10:24:01.742Z,69.33
2019-02-22T10:26:31.175Z,110.00
2019-02-22T10:29:00.604Z,119.07
2019-02-22T10:31:30.283Z,100.53
2019-02-22T10:33:59.730Z,70.73
2019-02-22T10:36:30.724Z,66.67
2019-02-22T10:39:00.128Z,52.13
2019-02-22T10:41:29.702Z,66.23
2019-02-22T10:43:59.242Z,59.83
2019-02-22T10:46:28.723Z,81.50
2019-02-22T10:48:58.278Z,70.10
2019-02-22T10:51:29.644Z,46.93
2019-02-22T10:53:59.179Z,46.00
2019-02-22T10:56:29.074Z,59.53
2019-02-22T10:58:58.652Z,43.70
2019-02-22T11:01:28.284Z,42.83
2019-02-22T11:03:57.748Z,39.70
2019-02-22T11:06:27.485Z,38.47
2019-02-22T11:08:56.982Z,38.97
2019-02-22T11:11:26.494Z,28.30
2019-02-22T11:13:56.156Z,36.13
2019-02-22T11:16:26.970Z,19.77
2019-02-22T11:18:56.566Z,18.87
2019-02-22T11:21:26.036Z,10.10
2019-02-22T11:23:55.626Z,11.47
2019-02-22T11:26:27.428Z,8.10
2019-02-22T11:28:56.964Z,8.17
2019-02-22T11:31:29.516Z,8.90
2019-02-22T11:33:59.209Z,9.43
2019-02-22T11:36:28.749Z,12.47
2019-02-22T11:38:58.248Z,11.37
2019-02-22T11:41:27.768Z,12.77
2019-02-22T11:43:57.259Z,12.53
2019-02-22T11:46:26.749Z,12.63
2019-02-22T11:48:56.509Z,12.53
2019-02-22T11:51:25.934Z,12.27
2019-02-22T11:53:55.718Z,12.60
2019-02-22T11:56:25.228Z,13.70
2019-02-22T11:58:54.964Z,12.83
2019-02-22T12:01:24.423Z,13.20
2019-02-22T12:04:14.822Z,11.73
2019-02-22T12:06:44.269Z,12.37
2019-02-22T12:09:13.829Z,9.17
2019-02-22T12:11:43.225Z,10.40
2019-02-22T12:14:12.723Z,9.77
2019-02-22T12:16:43.430Z,9.27
2019-02-22T12:19:13.358Z,8.43
2019-02-22T12:21:42.862Z,9.00
2019-02-22T12:24:12.518Z,10.20
2019-02-22T12:26:42.059Z,9.07
2019-02-22T12:29:11.584Z,10.33
2019-02-22T12:31:41.000Z,8.70
2019-02-22T12:34:10.507Z,10.53
2019-02-22T12:36:39.916Z,10.40
2019-02-22T12:39:09.527Z,11.57
2019-02-22T12:41:39.318Z,10.13
2019-02-22T12:44:08.804Z,10.37
2019-02-22T12:46:38.372Z,11.70
2019-02-22T12:49:07.861Z,11.03
2019-02-22T12:51:37.318Z,10.70
2019-02-22T12:54:06.915Z,12.53
2019-02-22T12:59:07.585Z,11.13
2019-02-22T13:01:38.673Z,12.63
2019-02-22T13:04:08.138Z,12.47
2019-02-22T13:06:37.561Z,13.73
2019-02-22T13:09:07.670Z,13.00
2019-02-22T13:11:37.141Z,14.23
2019-02-22T13:14:06.685Z,13.87
2019-02-22T13:16:36.180Z,14.73
2019-02-22T13:19:06.893Z,11.87
2019-02-22T13:21:36.318Z,11.60
2019-02-22T13:24:05.952Z,12.87
2019-02-22T13:26:35.548Z,13.33
2019-02-22T13:29:05.184Z,12.17
2019-02-22T13:31:34.673Z,12.57
2019-02-22T13:34:04.236Z,11.20
2019-02-22T13:36:33.781Z,11.60
2019-02-22T13:39:04.799Z,12.33
2019-02-22T13:41:34.386Z,11.70
2019-02-22T13:44:03.830Z,12.63
2019-02-22T13:46:33.254Z,13.30
2019-02-22T13:49:02.703Z,12.63
2019-02-22T13:51:34.105Z,11.57
2019-02-22T13:54:03.290Z,11.67
2019-02-22T13:56:32.717Z,13.60
2019-02-22T13:59:02.156Z,15.03
2019-02-22T14:01:31.648Z,12.43
2019-02-22T14:04:01.082Z,13.07
2019-02-22T14:06:30.630Z,12.30
2019-02-22T14:09:00.092Z,13.53
2019-02-22T14:11:42.542Z,15.17
2019-02-22T14:14:12.064Z,15.03
2019-02-22T14:16:41.621Z,16.67
2019-02-22T14:19:11.381Z,17.03
2019-02-22T14:21:43.731Z,15.63
2019-02-22T14:24:13.149Z,17.63
2019-02-22T14:26:44.190Z,18.13
2019-02-22T14:29:13.646Z,19.43
2019-02-22T14:31:44.644Z,21.00
2019-02-22T14:34:33.615Z,21.07
2019-02-22T14:37:03.145Z,19.70
2019-02-22T14:39:35.844Z,18.00
2019-02-22T14:42:05.738Z,21.77
2019-02-22T14:44:35.351Z,20.83
2019-02-22T14:47:04.835Z,17.77
2019-02-22T14:49:34.318Z,18.27
2019-02-22T14:52:03.880Z,19.93
2019-02-22T14:54:33.328Z,17.47
2019-02-22T14:57:02.747Z,19.60
2019-02-22T14:59:32.239Z,20.17
2019-02-22T15:02:01.802Z,18.83
2019-02-22T15:04:31.222Z,17.10
2019-02-22T15:07:00.755Z,16.63
2019-02-22T15:09:30.369Z,17.30
2019-02-22T15:12:00.261Z,16.90
2019-02-22T15:14:29.794Z,17.17
2019-02-22T15:17:00.999Z,15.77
2019-02-22T15:19:31.845Z,14.93
2019-02-22T15:22:06.153Z,16.93
2019-02-22T15:24:35.598Z,16.17
2019-02-22T15:27:05.038Z,16.03
2019-02-22T15:29:34.609Z,14.53
2019-02-22T15:32:05.675Z,14.40
2019-02-22T15:34:35.146Z,14.53
2019-02-22T15:37:04.640Z,15.53
2019-02-22T15:39:34.088Z,15.80
2019-02-22T15:42:03.532Z,14.23
2019-02-22T15:44:33.133Z,16.43
2019-02-22T15:47:11.361Z,16.43
2019-02-22T15:49:33.754Z,15.37
2019-02-22T15:52:04.030Z,14.97
2019-02-22T15:54:36.361Z,15.30
2019-02-22T15:57:05.776Z,15.03
2019-02-22T15:59:36.935Z,15.90
2019-02-22T16:02:06.357Z,13.40
2019-02-22T16:04:37.442Z,17.23
2019-02-22T16:07:06.892Z,17.53
2019-02-22T16:09:36.368Z,15.47
2019-02-22T16:12:07.946Z,14.93
2019-02-22T16:14:37.465Z,14.37
2019-02-22T16:17:06.883Z,12.50
2019-02-22T16:19:36.641Z,13.40
2019-02-22T16:22:06.099Z,14.63
2019-02-22T16:24:35.552Z,14.90
2019-02-22T16:27:04.957Z,17.30
2019-02-22T16:29:34.520Z,17.10
2019-02-22T16:32:04.903Z,16.93
2019-02-22T16:34:43.063Z,17.60
2019-02-22T16:37:05.440Z,18.30
2019-02-22T16:39:34.878Z,15.07
2019-02-22T16:42:04.300Z,14.40
2019-02-22T16:44:33.841Z,16.30
2019-02-22T16:47:03.348Z,17.50
2019-02-22T16:49:32.802Z,15.33
2019-02-22T16:52:02.259Z,15.17
2019-02-22T16:54:31.714Z,15.63
2019-02-22T16:57:01.177Z,19.07
2019-02-22T16:59:30.576Z,20.57
2019-02-22T17:02:00.094Z,19.17
2019-02-22T17:04:29.671Z,22.30
2019-02-22T17:06:59.099Z,23.70
2019-02-22T17:09:28.597Z,19.87
2019-02-22T17:12:06.219Z,23.70
2019-02-22T17:14:29.245Z,23.57
2019-02-22T17:16:58.703Z,23.40
2019-02-22T17:19:28.262Z,21.77
2019-02-22T17:21:57.969Z,23.80
2019-02-22T17:24:27.479Z,26.93
2019-02-22T17:26:56.892Z,24.27
2019-02-22T17:29:26.365Z,22.00
2019-02-22T17:31:55.753Z,23.27
2019-02-22T17:34:25.216Z,22.83
2019-02-22T17:36:54.641Z,23.87
2019-02-22T17:39:24.288Z,25.33
2019-02-22T17:41:53.749Z,24.17
2019-02-22T17:44:23.178Z,24.10
2019-02-22T17:46:57.608Z,25.47
2019-02-22T17:49:23.772Z,22.83
2019-02-22T17:51:53.191Z,23.63
2019-02-22T17:54:22.618Z,24.13
2019-02-22T17:56:52.032Z,26.17
2019-02-22T17:59:21.465Z,25.70
2019-02-22T18:01:50.929Z,26.87
2019-02-22T18:04:20.363Z,25.67
2019-02-22T18:06:49.805Z,26.63
2019-02-22T18:09:19.210Z,28.27
2019-02-22T18:11:48.668Z,25.30
2019-02-22T18:14:18.182Z,25.63
2019-02-22T18:16:47.593Z,25.17
2019-02-22T18:19:17.821Z,25.67
2019-02-22T18:21:47.253Z,32.13
2019-02-22T18:24:16.939Z,26.80
2019-02-22T18:26:46.376Z,25.57
2019-02-22T18:29:15.818Z,25.73
2019-02-22T18:31:45.281Z,27.73
2019-02-22T18:34:14.846Z,26.20
2019-02-22T18:36:44.373Z,25.30
2019-02-22T18:39:13.803Z,26.93
2019-02-22T18:41:43.307Z,27.50
2019-02-22T18:44:15.499Z,29.40
2019-02-22T18:46:44.945Z,29.67
2019-02-22T18:49:14.372Z,27.63
2019-02-22T18:51:43.772Z,29.33
2019-02-22T18:54:13.302Z,29.30
2019-02-22T18:56:42.720Z,31.53
2019-02-22T18:59:12.176Z,28.57
2019-02-22T19:01:41.612Z,31.97
2019-02-22T19:04:11.073Z,28.30
2019-02-22T19:06:40.490Z,31.23
2019-02-22T19:09:09.972Z,31.67
2019-02-22T19:11:39.382Z,29.77
2019-02-22T19:14:08.896Z,32.00
2019-02-22T19:16:42.031Z,33.47
2019-02-22T19:19:14.138Z,34.73
2019-02-22T19:21:42.600Z,33.10
2019-02-22T19:24:12.025Z,35.03
2019-02-22T19:26:41.650Z,36.97
2019-02-22T19:29:11.068Z,38.20
2019-02-22T19:31:40.534Z,39.67
2019-02-22T19:34:10.062Z,39.67
2019-02-22T19:36:39.560Z,41.33
2019-02-22T19:39:08.979Z,40.57
2019-02-22T19:41:38.454Z,43.60
2019-02-22T19:44:07.976Z,47.30
2019-02-22T19:46:37.424Z,50.37
2019-02-22T19:49:06.879Z,51.67
2019-02-22T19:51:36.302Z,49.13
2019-02-22T19:54:05.823Z,53.40
2019-02-22T19:56:35.288Z,55.57
2019-02-22T19:59:04.686Z,54.53
2019-02-22T20:01:34.145Z,55.17
2019-02-22T20:04:03.642Z,60.13
2019-02-22T20:06:33.156Z,60.77
2019-02-22T20:09:02.579Z,70.43
2019-02-22T20:11:32.066Z,65.73
2019-02-22T20:14:02.457Z,66.50
2019-02-22T20:16:31.886Z,64.47
2019-02-22T20:19:01.335Z,78.27
2019-02-22T20:21:32.358Z,73.97
2019-02-22T20:24:01.805Z,83.53
2019-02-22T20:26:31.213Z,83.40
2019-02-22T20:29:01.010Z,72.33
2019-02-22T20:31:30.878Z,75.50
2019-02-22T20:34:00.334Z,73.57
2019-02-22T20:36:29.964Z,88.80
2019-02-22T20:39:12.462Z,81.57
2019-02-22T20:41:41.889Z,76.67
2019-02-22T20:44:11.361Z,74.83
2019-02-22T20:46:40.768Z,79.07
2019-02-22T20:49:10.172Z,92.40
2019-02-22T20:51:39.591Z,81.57
2019-02-22T20:54:10.581Z,82.90
2019-02-22T20:56:40.067Z,84.07
2019-02-22T20:59:12.505Z,76.77
2019-02-22T21:01:41.897Z,77.20
2019-02-22T21:04:11.301Z,79.07
2019-02-22T21:06:40.751Z,81.73
2019-02-22T21:09:10.337Z,75.37
2019-02-22T21:11:39.731Z,86.40
2019-02-22T21:14:09.120Z,77.23
2019-02-22T21:16:38.525Z,66.30
2019-02-22T21:19:09.564Z,85.37
2019-02-22T21:21:39.131Z,82.37
2019-02-22T21:24:08.587Z,80.00
2019-02-22T21:26:37.989Z,77.73
2019-02-22T21:29:07.882Z,74.67
2019-02-22T21:31:37.327Z,73.67
2019-02-22T21:34:06.763Z,80.00
2019-02-22T21:36:36.194Z,83.33
2019-02-22T21:39:06.128Z,83.43
2019-02-22T21:41:35.519Z,89.47
2019-02-22T21:44:05.017Z,77.10
2019-02-22T21:46:34.446Z,69.37
2019-02-22T21:49:03.862Z,74.93
2019-02-22T21:51:33.340Z,71.93
2019-02-22T21:54:02.841Z,78.20
2019-02-22T21:56:32.288Z,83.47
2019-02-22T21:59:01.717Z,72.60
2019-02-22T22:01:31.144Z,75.40
2019-02-22T22:04:00.562Z,76.23
2019-02-22T22:06:29.989Z,77.30
2019-02-22T22:08:59.516Z,76.10
2019-02-22T22:11:28.941Z,75.90
2019-02-22T22:13:58.407Z,73.17
2019-02-22T22:16:27.789Z,75.43
2019-02-22T22:18:57.213Z,76.87
2019-02-22T22:21:26.625Z,76.40
2019-02-22T22:23:58.746Z,72.93
2019-02-22T22:26:28.152Z,70.43
2019-02-22T22:28:59.523Z,72.27
2019-02-22T22:31:30.195Z,75.70
2019-02-22T22:33:59.636Z,73.47
2019-02-22T22:36:29.042Z,73.43
2019-02-22T22:38:58.450Z,66.60
2019-02-22T22:41:27.899Z,78.47
2019-02-22T22:43:57.286Z,76.23
2019-02-22T22:46:36.588Z,73.03
2019-02-22T22:48:57.855Z,66.43
2019-02-22T22:51:27.303Z,70.90
2019-02-22T22:53:56.720Z,69.50
2019-02-22T22:56:26.189Z,66.30
2019-02-22T22:58:55.567Z,70.40
2019-02-22T23:01:25.276Z,70.10
2019-02-22T23:03:54.783Z,74.80
2019-02-22T23:06:24.201Z,73.33
2019-02-22T23:08:54.520Z,70.53
2019-02-22T23:11:23.931Z,68.33
2019-02-22T23:13:54.978Z,66.73
2019-02-22T23:16:24.412Z,64.47
2019-02-22T23:19:01.383Z,66.63
2019-02-22T23:21:24.954Z,60.17
2019-02-22T23:23:54.370Z,65.27
2019-02-22T23:26:25.372Z,56.57
2019-02-22T23:28:54.837Z,52.67
2019-02-22T23:31:24.294Z,59.57
2019-02-22T23:33:54.060Z,54.77
2019-02-22T23:36:23.543Z,56.37
2019-02-22T23:38:54.120Z,46.27
2019-02-22T23:41:25.164Z,50.17
2019-02-22T23:43:54.636Z,50.67
2019-02-22T23:46:24.103Z,51.00
2019-02-22T23:48:53.526Z,50.70
2019-02-22T23:51:22.951Z,49.17
2019-02-22T23:53:52.372Z,48.23
2019-02-22T23:56:21.789Z,52.47
2019-02-22T23:58:51.243Z,51.00
